Terminal Aerodrome Forecast
Issued by NWS

Home | Current Version | Previous Version | Text Only | Print | Product List | Glossary On
Versions: 1 2 3 4 5 6 7 8 9 10 11 12 13 14 15 16 17 18 19 20 21 22 23 24 25 26 27 28
000
FTUS42 KCAE 021432 AAA
TAFOGB
TAF AMD
KOGB 021432Z 0215/0312 VRB03KT P6SM SCT250
     FM021700 VRB05KT P6SM SCT050 SCT250
     FM030000 VRB03KT P6SM BKN250
     FM030700 00000KT 4SM BR SCT250=

USA.gov is the U.S. government's official web portal to all federal, state and local government web resources and services.